PA35 weather

Bally Spring Farm Airport
Bally, Pennsylvania, United States

Public forecast

Using degrees Fahrenheit for public forecast. Weather courtesy of forecast.io.

METAR (pilot weather report)

Closest report is Allentown Queen City Municipal Airport, 10.4 nm (19.3 km) NE. Retrieved 2019/09/23 12:35 UTC (0 seconds ago):

KXLL 231235Z AUTO 00000KT 10SM CLR 22/20 A2995 RMK AO2

TAF (pilot weather forecast)

Closest forecast is Lehigh Valley International Airport, 15.7 nm (29.0 km) NNE. Retrieved 2019/09/23 12:22 UTC (0 seconds ago):

TAF KABE 231120Z 2312/2412 00000KT 4SM BR SCT080 BKN150 FM231300 24005KT P6SM SCT080 BKN150 FM231600 24010G18KT P6SM SCT250 FM232200 24014KT P6SM -SHRA OVC050 FM240300 27005KT P6SM BKN100